Time;durP1;ratioP1;P1;durP2;ratioP2;P2;SDS_P1;SDS_P2;PMS_P1;PMS_P2;Temp;Humidity;BMP_temperature;BMP_pressure;BME280_temperature;BME280_humidity;BME280_pressure;Samples;Min_cycle;Max_cycle;Signal;HPM_P1;HPM_P2
2023/03/14 00:00:34;;;;;;;24.07;0.97;;;11.30;1.00;;;;;;5096459;28;20535;-78
2023/03/14 00:03:02;;;;;;;0.50;0.30;;;11.20;1.00;;;;;;5093832;28;20466;-77
2023/03/14 00:05:30;;;;;;;0.50;0.10;;;11.20;1.00;;;;;;5094385;28;20453;-76
2023/03/14 00:07:58;;;;;;;4.07;0.93;;;11.30;1.00;;;;;;5094136;28;20467;-77
2023/03/14 00:10:26;;;;;;;0.50;0.10;;;11.30;1.00;;;;;;5095067;28;20454;-78
2023/03/14 00:12:54;;;;;;;0.50;0.10;;;11.30;1.00;;;;;;5096273;28;20433;-76
2023/03/14 00:15:22;;;;;;;0.50;0.10;;;11.40;1.00;;;;;;5080743;28;20496;-77
2023/03/14 00:17:51;;;;;;;0.50;0.20;;;11.40;1.00;;;;;;5093249;28;20868;-77
2023/03/14 00:20:26;;;;;;;0.60;0.30;;;;;;;;;;5094530;28;20460;-77
2023/03/14 00:22:54;;;;;;;0.70;0.43;;;11.30;1.00;;;;;;5090992;28;20525;-77
2023/03/14 00:25:22;;;;;;;0.50;0.10;;;11.30;1.00;;;;;;5081398;28;20449;-78
2023/03/14 00:27:54;;;;;;;0.50;0.10;;;11.20;1.00;;;;;;5093533;28;20947;-78
2023/03/14 00:30:22;;;;;;;0.60;0.30;;;11.30;1.00;;;;;;5095500;28;20460;-77
2023/03/14 00:32:51;;;;;;;0.50;0.20;;;11.30;1.00;;;;;;5096669;28;20451;-77
2023/03/14 00:35:19;;;;;;;0.60;0.30;;;11.30;1.00;;;;;;5107440;28;20733;-78
2023/03/14 00:37:47;;;;;;;1.33;0.43;;;11.30;1.00;;;;;;5104148;28;20971;-77
2023/03/14 00:40:14;;;;;;;0.70;0.67;;;11.30;1.00;;;;;;5098606;28;20445;-77
2023/03/14 00:42:42;;;;;;;0.50;0.10;;;11.30;1.00;;;;;;5093125;28;20453;-77
2023/03/14 00:45:11;;;;;;;0.50;0.10;;;11.40;1.00;;;;;;5097459;28;20476;-77
2023/03/14 00:47:38;;;;;;;0.50;0.10;;;11.40;1.00;;;;;;5081378;28;20449;-77
2023/03/14 00:50:09;;;;;;;0.50;0.10;;;11.40;1.00;;;;;;5082900;28;20458;-77
2023/03/14 00:52:37;;;;;;;0.50;0.10;;;11.40;1.00;;;;;;5082280;28;20443;-77
2023/03/14 00:55:06;;;;;;;0.50;0.10;;;11.50;1.00;;;;;;5079289;28;20465;-78
2023/03/14 00:57:33;;;;;;;0.50;0.10;;;11.50;1.00;;;;;;5097004;28;20451;-77
2023/03/14 01:00:04;;;;;;;0.50;0.10;;;11.50;1.00;;;;;;5097067;28;20445;-78
2023/03/14 05:00:55;;;;;;;0.50;0.20;;;11.60;99.90;;;;;;5921021;22;20912;-76
2023/03/14 05:03:23;;;;;;;7.50;1.60;;;11.60;99.90;;;;;;5054794;28;20460;-76
2023/03/14 05:05:51;;;;;;;0.50;0.10;;;11.50;99.90;;;;;;5060227;28;20811;-76
2023/03/14 05:08:19;;;;;;;0.50;0.10;;;11.40;99.90;;;;;;5064912;28;20440;-77
2023/03/14 05:10:53;;;;;;;0.50;0.10;;;11.40;99.90;;;;;;5053425;28;20495;-78
2023/03/14 05:13:21;;;;;;;0.50;0.20;;;;;;;;;;5054824;28;20530;-77
2023/03/14 05:15:50;;;;;;;0.50;0.10;;;11.40;99.90;;;;;;5045540;23;20495;-80
2023/03/14 05:18:19;;;;;;;0.60;0.20;;;11.40;99.90;;;;;;5015421;28;20948;-79
2023/03/14 05:20:51;;;;;;;0.57;0.20;;;11.40;99.90;;;;;;5046450;28;20454;-79
2023/03/14 05:23:18;;;;;;;0.50;0.10;;;11.40;99.90;;;;;;5048044;28;20438;-81
2023/03/14 05:25:46;;;;;;;0.50;0.10;;;11.40;99.90;;;;;;5043999;28;20468;-80
2023/03/14 05:28:14;;;;;;;0.60;0.20;;;11.40;99.90;;;;;;5043657;28;20456;-80
2023/03/14 05:30:42;;;;;;;0.50;0.10;;;11.40;99.90;;;;;;5044866;28;20465;-81
2023/03/14 05:33:10;;;;;;;0.50;0.10;;;11.40;99.90;;;;;;5036900;28;20919;-80
2023/03/14 05:35:40;;;;;;;0.50;0.10;;;11.50;99.90;;;;;;5024224;28;20854;-80
2023/03/14 05:38:08;;;;;;;0.50;0.10;;;11.50;99.90;;;;;;5042161;28;20520;-80
2023/03/14 05:40:36;;;;;;;0.50;0.10;;;11.50;99.90;;;;;;5044777;28;20442;-81
2023/03/14 05:43:03;;;;;;;0.50;0.10;;;11.40;99.90;;;;;;5036404;28;20493;-80
2023/03/14 05:45:31;;;;;;;0.50;0.10;;;11.40;99.90;;;;;;5035009;28;20462;-81
2023/03/14 05:48:02;;;;;;;1.07;0.33;;;11.40;99.90;;;;;;5045316;28;20890;-80
2023/03/14 05:50:30;;;;;;;0.50;0.10;;;;;;;;;;5027226;28;20884;-79
2023/03/14 05:53:00;;;;;;;0.50;0.27;;;11.40;99.90;;;;;;5024410;28;20834;-79
2023/03/14 05:55:28;;;;;;;0.50;0.10;;;11.30;99.90;;;;;;5019930;28;20466;-80
2023/03/14 05:57:56;;;;;;;0.50;0.10;;;11.30;99.90;;;;;;5024533;28;20486;-79
2023/03/14 06:00:24;;;;;;;0.50;0.30;;;11.30;99.90;;;;;;5011275;28;20450;-79
2023/03/14 06:02:52;;;;;;;0.50;0.10;;;11.30;99.90;;;;;;5023305;28;20451;-80
2023/03/14 06:05:20;;;;;;;0.50;0.10;;;11.30;99.90;;;;;;5041105;28;20463;-80
2023/03/14 06:07:48;;;;;;;0.50;0.20;;;;;;;;;;5027522;28;20457;-80
2023/03/14 06:10:17;;;;;;;0.50;0.10;;;;;;;;;;5030577;28;20432;-80
2023/03/14 06:12:46;;;;;;;0.50;0.17;;;11.40;99.90;;;;;;5031104;28;20966;-78
2023/03/14 06:15:14;;;;;;;0.50;0.10;;;11.30;99.90;;;;;;5030264;28;20506;-81
2023/03/14 06:17:42;;;;;;;0.50;0.10;;;11.30;99.90;;;;;;5039108;28;20490;-81
2023/03/14 06:20:12;;;;;;;0.50;0.10;;;11.30;99.90;;;;;;5049367;28;20449;-81
2023/03/14 06:22:40;;;;;;;0.50;0.10;;;11.30;99.90;;;;;;5024196;28;20455;-81
2023/03/14 06:25:10;;;;;;;0.60;0.20;;;11.30;99.90;;;;;;5034940;28;20453;-81
2023/03/14 06:27:39;;;;;;;0.50;0.20;;;11.30;99.90;;;;;;5033428;28;20483;-81
2023/03/14 06:30:09;;;;;;;0.50;0.10;;;11.30;99.90;;;;;;5022994;28;20537;-81
2023/03/14 06:32:37;;;;;;;0.50;0.20;;;11.30;99.90;;;;;;5022964;28;20514;-78
2023/03/14 06:35:08;;;;;;;0.50;0.10;;;11.30;99.90;;;;;;5024710;28;20881;-83
2023/03/14 06:37:35;;;;;;;0.50;0.20;;;11.30;99.90;;;;;;5023301;28;20493;-81
2023/03/14 06:40:05;;;;;;;0.50;0.10;;;11.20;99.90;;;;;;5021498;28;20455;-81
2023/03/14 06:42:32;;;;;;;0.50;0.10;;;11.20;99.90;;;;;;5024041;28;20449;-82
2023/03/14 06:45:02;;;;;;;0.50;0.10;;;11.30;99.90;;;;;;5019590;28;20473;-78
2023/03/14 06:47:30;;;;;;;0.50;0.10;;;11.40;99.90;;;;;;5025667;28;20477;-79
2023/03/14 06:49:57;;;;;;;0.50;0.10;;;11.40;99.90;;;;;;5023932;28;20508;-80
2023/03/14 06:52:26;;;;;;;0.50;0.10;;;11.50;99.90;;;;;;5013240;28;20434;-79
2023/03/14 06:54:53;;;;;;;0.50;0.10;;;11.40;99.90;;;;;;5021390;28;20473;-78
2023/03/14 06:57:21;;;;;;;0.50;0.10;;;11.40;99.90;;;;;;5040791;28;20484;-79
2023/03/14 06:59:49;;;;;;;0.50;0.10;;;11.50;99.90;;;;;;5049670;28;20428;-79
2023/03/14 07:02:18;;;;;;;0.50;0.10;;;11.50;99.90;;;;;;5056648;28;20447;-78
2023/03/14 07:04:53;;;;;;;0.50;0.10;;;11.60;99.90;;;;;;5057337;28;20468;-80
2023/03/14 07:07:21;;;;;;;0.50;0.10;;;11.60;99.90;;;;;;5047323;28;20465;-80
2023/03/14 07:09:49;;;;;;;0.50;0.10;;;11.60;99.90;;;;;;5044444;28;20769;-79
2023/03/14 07:12:17;;;;;;;0.50;0.20;;;11.60;99.90;;;;;;5046308;28;20458;-79
2023/03/14 07:14:45;;;;;;;0.50;0.10;;;11.60;99.90;;;;;;5035162;28;20488;-79
2023/03/14 07:17:13;;;;;;;0.70;0.60;;;11.60;99.90;;;;;;5027350;28;20550;-79
2023/03/14 07:19:42;;;;;;;0.50;0.10;;;11.60;99.90;;;;;;5027034;28;20455;-79
2023/03/14 07:22:10;;;;;;;0.50;0.10;;;11.60;99.90;;;;;;5027893;28;20469;-80
2023/03/14 07:24:37;;;;;;;0.50;0.10;;;11.60;99.90;;;;;;5033156;28;20472;-80
2023/03/14 07:27:05;;;;;;;0.50;0.10;;;11.60;99.90;;;;;;5030511;28;20453;-80
2023/03/14 07:29:36;;;;;;;0.50;0.10;;;11.70;99.90;;;;;;5023317;28;20457;-79
2023/03/14 07:32:04;;;;;;;0.50;0.10;;;11.70;99.90;;;;;;5029050;28;20488;-78
2023/03/14 07:34:32;;;;;;;0.50;0.20;;;11.70;99.90;;;;;;5034750;28;20470;-77
2023/03/14 07:37:02;;;;;;;0.50;0.10;;;11.70;99.90;;;;;;5028419;28;20560;-78
2023/03/14 07:39:30;;;;;;;0.50;0.10;;;11.60;99.90;;;;;;5031046;28;20531;-78
2023/03/14 07:41:57;;;;;;;4.77;4.43;;;11.60;99.90;;;;;;5024946;28;20947;-80
2023/03/14 07:44:27;;;;;;;0.50;0.10;;;;;;;;;;5025427;28;20471;-80
2023/03/14 07:46:55;;;;;;;0.50;0.10;;;11.60;99.90;;;;;;5027033;28;20461;-80
2023/03/14 07:49:23;;;;;;;0.50;0.10;;;11.60;99.90;;;;;;5026807;28;20446;-80
2023/03/14 07:51:51;;;;;;;0.50;0.10;;;11.50;99.90;;;;;;5029898;28;20470;-79
2023/03/14 07:54:20;;;;;;;0.50;0.10;;;11.50;99.90;;;;;;5029245;28;20465;-80
2023/03/14 07:56:48;;;;;;;0.50;0.10;;;11.50;99.90;;;;;;5027417;28;20803;-80
2023/03/14 07:59:16;;;;;;;0.50;0.10;;;;;;;;;;5026660;28;20453;-79
2023/03/14 08:01:45;;;;;;;0.50;0.10;;;11.50;99.90;;;;;;5026432;28;20470;-79
2023/03/14 08:04:13;;;;;;;0.50;0.10;;;11.60;99.90;;;;;;5032237;28;20506;-79
2023/03/14 08:06:41;;;;;;;0.60;0.40;;;11.60;99.90;;;;;;5036947;28;20432;-77
2023/03/14 08:09:09;;;;;;;1.00;0.57;;;11.60;99.90;;;;;;5036221;28;20457;-79
2023/03/14 08:11:38;;;;;;;0.60;0.20;;;11.60;99.90;;;;;;5035169;28;20445;-78
2023/03/14 08:14:06;;;;;;;0.50;0.10;;;11.60;99.90;;;;;;5034855;28;21432;-79
2023/03/14 08:16:34;;;;;;;0.50;0.10;;;11.60;99.90;;;;;;5036823;28;20446;-78
2023/03/14 08:19:03;;;;;;;0.50;0.10;;;11.60;99.90;;;;;;5036339;28;20491;-80
2023/03/14 08:21:31;;;;;;;0.50;0.10;;;11.60;99.90;;;;;;5036016;28;20476;-78
2023/03/14 08:24:00;;;;;;;0.50;0.20;;;;;;;;;;5036363;28;20456;-80
2023/03/14 08:26:29;;;;;;;0.50;0.20;;;;;;;;;;5034373;28;20445;-81
2023/03/14 08:28:58;;;;;;;0.50;0.10;;;11.40;99.90;;;;;;5031762;28;20457;-79
2023/03/14 08:31:26;;;;;;;1.13;0.93;;;11.40;99.90;;;;;;5025678;28;20514;-78
2023/03/14 08:33:54;;;;;;;0.50;0.10;;;11.50;99.90;;;;;;5022277;28;20448;-78
2023/03/14 08:36:22;;;;;;;0.60;0.30;;;11.50;99.90;;;;;;5021204;28;20527;-79
2023/03/14 08:38:51;;;;;;;0.50;0.10;;;11.50;99.90;;;;;;5026799;28;20496;-80
2023/03/14 08:41:19;;;;;;;3.80;0.77;;;11.50;99.90;;;;;;5034166;28;20504;-79
2023/03/14 08:43:48;;;;;;;0.63;0.20;;;11.50;99.90;;;;;;5034691;28;20438;-78
2023/03/14 08:46:17;;;;;;;0.50;0.10;;;11.50;99.90;;;;;;5028683;28;20444;-78
2023/03/14 08:48:44;;;;;;;2.10;0.50;;;11.50;99.90;;;;;;5035864;28;20467;-78
2023/03/14 08:51:14;;;;;;;11.97;10.67;;;11.50;99.90;;;;;;5035718;28;20504;-80
2023/03/14 08:53:42;;;;;;;0.73;0.20;;;11.50;99.90;;;;;;5035988;28;20449;-78
2023/03/14 08:56:10;;;;;;;0.80;0.30;;;11.40;99.90;;;;;;5038274;28;20459;-78
2023/03/14 08:58:39;;;;;;;0.50;0.20;;;11.40;99.90;;;;;;5039890;28;20455;-78
2023/03/14 09:01:08;;;;;;;0.50;0.20;;;11.50;99.90;;;;;;5037915;28;20441;-78
2023/03/14 09:03:45;;;;;;;0.50;0.10;;;11.60;99.90;;;;;;5036664;28;20445;-80
2023/03/14 09:06:17;;;;;;;0.50;0.10;;;;;;;;;;5038749;28;20472;-76
2023/03/14 09:08:46;;;;;;;0.50;0.20;;;11.80;99.90;;;;;;5036599;28;20432;-78
2023/03/14 09:14:01;;;;;;;0.57;0.20;;;11.90;99.90;;;;;;5030150;28;20488;-79
2023/03/14 09:16:32;;;;;;;0.50;0.20;;;;;;;;;;5036838;28;20475;-79
2023/03/14 09:19:02;;;;;;;0.60;0.20;;;11.90;99.90;;;;;;5036884;28;20475;-77
2023/03/14 09:21:30;;;;;;;0.60;0.20;;;11.90;99.90;;;;;;5037091;28;20455;-78
2023/03/14 09:23:58;;;;;;;0.50;0.10;;;;;;;;;;5032321;28;20460;-77
2023/03/14 09:26:26;;;;;;;0.60;0.20;;;12.20;99.90;;;;;;5027990;28;20448;-76
2023/03/14 09:28:54;;;;;;;0.50;0.20;;;;;;;;;;5020106;28;20821;-78
2023/03/14 09:31:25;;;;;;;0.50;0.10;;;12.30;99.90;;;;;;5024720;28;20442;-78
2023/03/14 09:33:53;;;;;;;0.60;0.10;;;12.40;99.90;;;;;;5020924;28;20438;-80
2023/03/14 09:36:22;;;;;;;0.60;0.10;;;12.40;99.90;;;;;;5019267;28;20450;-78
2023/03/14 09:38:51;;;;;;;0.57;0.10;;;;;;;;;;5018438;28;20476;-79
2023/03/14 09:41:24;;;;;;;0.73;0.63;;;12.40;99.90;;;;;;5018745;28;20812;-79
2023/03/14 09:44:01;;;;;;;0.50;0.10;;;12.30;99.90;;;;;;5018517;28;20460;-79
2023/03/14 09:46:32;;;;;;;0.60;0.20;;;12.30;99.90;;;;;;5022695;28;20452;-77
2023/03/14 09:49:00;;;;;;;0.70;0.30;;;12.30;99.90;;;;;;5020030;28;20442;-79
2023/03/14 09:51:31;;;;;;;0.60;0.20;;;12.20;99.90;;;;;;5020800;28;21004;-80
2023/03/14 09:54:00;;;;;;;0.50;0.10;;;12.10;99.90;;;;;;5020860;28;20480;-78
2023/03/14 09:56:32;;;;;;;0.50;0.10;;;12.10;99.90;;;;;;5018115;28;20876;-78
2023/03/14 09:59:03;;;;;;;0.50;0.10;;;12.00;99.90;;;;;;5020741;28;20563;-78
2023/03/14 10:01:33;;;;;;;0.50;0.10;;;12.10;99.90;;;;;;5015691;28;20517;-79
2023/03/14 10:04:06;;;;;;;0.50;0.10;;;12.20;99.90;;;;;;5009566;28;20468;-79
2023/03/14 10:06:35;;;;;;;0.50;0.10;;;12.20;99.90;;;;;;4999476;28;20448;-77
2023/03/14 10:09:05;;;;;;;0.50;0.10;;;12.20;99.90;;;;;;4999554;28;20446;-77
2023/03/14 10:11:33;;;;;;;0.53;0.10;;;12.30;99.90;;;;;;5001905;28;20434;-79
2023/03/14 10:14:07;;;;;;;0.50;0.10;;;12.30;99.90;;;;;;5015872;28;20457;-80
2023/03/14 10:16:38;;;;;;;0.50;0.10;;;12.30;99.90;;;;;;5002989;28;20458;-80
2023/03/14 10:19:10;;;;;;;0.50;0.10;;;12.20;99.90;;;;;;5001301;28;20487;-79
2023/03/14 10:21:41;;;;;;;0.70;0.40;;;12.30;99.90;;;;;;5007846;28;20467;-79
2023/03/14 10:24:22;;;;;;;0.50;0.10;;;12.30;99.90;;;;;;5026671;28;20488;-80
2023/03/14 10:26:52;;;;;;;0.50;0.10;;;12.30;99.90;;;;;;4997870;28;20770;-78
2023/03/14 10:29:21;;;;;;;0.60;0.20;;;12.30;99.90;;;;;;4998630;28;20453;-78
2023/03/14 10:31:52;;;;;;;0.97;0.30;;;12.30;99.90;;;;;;5001414;28;20454;-78
2023/03/14 10:34:27;;;;;;;0.50;0.10;;;12.40;99.90;;;;;;5015147;28;20489;-77
2023/03/14 10:37:00;;;;;;;0.50;0.10;;;12.40;99.90;;;;;;5033538;28;20495;-79
2023/03/14 10:39:38;;;;;;;0.50;0.10;;;12.40;99.90;;;;;;5028623;28;20492;-78
2023/03/14 10:42:16;;;;;;;0.60;0.20;;;12.40;99.90;;;;;;5025200;28;20445;-78
2023/03/14 10:44:45;;;;;;;0.60;0.20;;;12.40;99.90;;;;;;5019420;28;20475;-78
2023/03/14 10:47:22;;;;;;;0.70;0.20;;;12.30;99.90;;;;;;5004091;28;20449;-78
2023/03/14 10:49:51;;;;;;;0.50;0.10;;;12.30;99.90;;;;;;5002396;28;20466;-77
2023/03/14 10:52:23;;;;;;;0.50;0.10;;;12.30;99.90;;;;;;5001515;28;20520;-78
2023/03/14 10:55:13;;;;;;;0.60;0.20;;;12.30;99.90;;;;;;5035253;28;20514;-78
2023/03/14 10:57:42;;;;;;;0.50;0.10;;;12.30;99.90;;;;;;5039389;28;20460;-78
2023/03/14 11:00:17;;;;;;;10.03;0.40;;;12.30;99.90;;;;;;5041623;28;20891;-77
2023/03/14 11:02:56;;;;;;;0.57;0.17;;;12.30;99.90;;;;;;5041737;28;20443;-79
2023/03/14 11:05:31;;;;;;;0.50;0.10;;;12.20;99.90;;;;;;5022186;28;20494;-78
2023/03/14 11:08:03;;;;;;;0.60;0.10;;;12.00;99.90;;;;;;5025742;28;20451;-77
2023/03/14 11:10:37;;;;;;;0.50;0.10;;;12.00;99.90;;;;;;5020929;28;20996;-79
2023/03/14 11:13:16;;;;;;;0.50;0.10;;;11.90;99.90;;;;;;5016563;28;20461;-77
2023/03/14 11:18:37;;;;;;;0.50;0.10;;;11.80;1.00;;;;;;5010904;28;20481;-76
2023/03/14 11:21:12;;;;;;;0.50;0.10;;;11.80;1.00;;;;;;5013951;28;20453;-75
2023/03/14 11:23:55;;;;;;;0.63;0.30;;;11.80;1.00;;;;;;5014022;28;20825;-75
2023/03/14 11:26:30;;;;;;;0.50;0.17;;;11.70;1.00;;;;;;5013176;28;20456;-76
2023/03/14 11:29:03;;;;;;;1.00;0.60;;;11.60;1.00;;;;;;5013363;28;20491;-76
2023/03/14 11:31:35;;;;;;;0.50;0.10;;;11.50;1.00;;;;;;5014061;28;20438;-74
2023/03/14 11:34:14;;;;;;;0.57;0.30;;;11.50;1.00;;;;;;5018020;28;20493;-75
2023/03/14 11:36:43;;;;;;;0.50;0.10;;;;;;;;;;5023764;28;20455;-75
2023/03/14 11:39:15;;;;;;;0.50;0.10;;;11.50;1.00;;;;;;5024910;28;20575;-73
2023/03/14 11:41:46;;;;;;;0.50;0.20;;;11.60;1.00;;;;;;5020019;28;20816;-77
2023/03/14 11:44:20;;;;;;;0.50;0.10;;;11.70;1.00;;;;;;5015604;28;20428;-74
2023/03/14 11:46:51;;;;;;;1.47;1.37;;;11.70;1.00;;;;;;5014942;28;20455;-77
2023/03/14 11:49:31;;;;;;;0.50;0.10;;;11.60;1.00;;;;;;5013545;28;20421;-77
2023/03/14 11:52:03;;;;;;;0.50;0.10;;;11.60;1.00;;;;;;5013643;28;20448;-75
2023/03/14 11:54:38;;;;;;;0.50;0.10;;;11.80;1.00;;;;;;5013702;28;20448;-77
2023/03/14 11:57:10;;;;;;;0.50;0.10;;;11.80;1.00;;;;;;5013581;28;20443;-78
2023/03/14 11:59:49;;;;;;;0.50;0.10;;;11.90;1.00;;;;;;5013405;28;20476;-75
2023/03/14 12:02:23;;;;;;;1.03;0.20;;;11.80;1.00;;;;;;5012983;28;20490;-76
2023/03/14 12:05:23;;;;;;;0.50;0.10;;;11.80;1.00;;;;;;5012524;28;20469;-75
2023/03/14 12:08:18;;;;;;;0.53;0.17;;;11.80;1.00;;;;;;5012877;28;20444;-74
2023/03/14 12:10:52;;;;;;;0.70;0.20;;;11.80;1.00;;;;;;5000206;28;20449;-75
2023/03/14 12:13:20;;;;;;;0.50;0.13;;;11.70;1.00;;;;;;5013044;28;20472;-78
2023/03/14 12:15:54;;;;;;;0.50;0.10;;;11.20;1.00;;;;;;5012277;28;20470;-76
2023/03/14 12:18:28;;;;;;;0.50;0.10;;;11.00;1.00;;;;;;5012304;28;20983;-75
2023/03/14 12:20:58;;;;;;;0.50;0.10;;;10.80;1.00;;;;;;5012238;28;20484;-76
2023/03/14 12:23:28;;;;;;;0.50;0.10;;;10.60;99.90;;;;;;5025044;28;20444;-74
2023/03/14 12:26:15;;;;;;;0.50;0.10;;;10.50;99.90;;;;;;5027077;28;20506;-73
2023/03/14 12:28:45;;;;;;;0.50;0.20;;;10.50;1.00;;;;;;5014615;28;20449;-73
2023/03/14 12:31:39;;;;;;;0.50;0.10;;;10.50;99.90;;;;;;5016204;28;20941;-76
2023/03/14 12:34:29;;;;;;;0.50;0.10;;;10.30;99.90;;;;;;5016163;28;20467;-73
2023/03/14 12:37:10;;;;;;;0.50;0.10;;;10.30;99.90;;;;;;5016686;28;20452;-75
2023/03/14 12:39:57;;;;;;;0.50;0.10;;;10.30;99.90;;;;;;5016320;28;20477;-72
2023/03/14 12:42:39;;;;;;;0.50;0.10;;;10.40;99.90;;;;;;5016647;28;20439;-74
2023/03/14 12:45:22;;;;;;;0.60;0.20;;;10.50;99.90;;;;;;5015718;28;20464;-75
2023/03/14 12:48:04;;;;;;;0.50;0.10;;;10.50;99.90;;;;;;5016348;28;20455;-74
2023/03/14 12:50:43;;;;;;;0.50;0.10;;;10.50;99.90;;;;;;5015977;28;20499;-74
2023/03/14 12:53:53;;;;;;;0.60;0.10;;;10.40;99.90;;;;;;5016782;28;20443;-76
2023/03/14 12:56:38;;;;;;;0.60;0.20;;;10.40;99.90;;;;;;4997144;28;20492;-75
2023/03/14 12:59:29;;;;;;;0.50;0.10;;;10.50;99.90;;;;;;4997193;28;20449;-74
2023/03/14 13:02:01;;;;;;;0.50;0.10;;;10.40;99.90;;;;;;4996528;28;20445;-74
2023/03/14 13:04:33;;;;;;;1.80;0.67;;;10.40;99.90;;;;;;5000840;28;20452;-75
2023/03/14 13:07:12;;;;;;;0.50;0.10;;;10.40;99.90;;;;;;5030981;28;20952;-74
2023/03/14 13:10:01;;;;;;;0.80;0.50;;;10.30;99.90;;;;;;5032109;28;20459;-76
2023/03/14 13:12:35;;;;;;;0.60;0.30;;;10.50;99.90;;;;;;5036421;28;20445;-76
2023/03/14 13:15:26;;;;;;;0.50;0.10;;;10.50;99.90;;;;;;5031556;28;21004;-75
2023/03/14 13:17:59;;;;;;;0.50;0.10;;;10.50;99.90;;;;;;5023863;28;20464;-76
2023/03/14 13:20:33;;;;;;;0.50;0.10;;;10.60;99.90;;;;;;5022852;28;20480;-76
2023/03/14 13:23:01;;;;;;;0.60;0.30;;;10.60;99.90;;;;;;5024182;28;20441;-77
2023/03/14 13:25:34;;;;;;;0.60;0.20;;;10.70;99.90;;;;;;5035074;28;20473;-76
2023/03/14 13:28:04;;;;;;;0.50;0.10;;;10.80;99.90;;;;;;5031754;28;20452;-77
2023/03/14 13:30:42;;;;;;;1.07;0.40;;;10.80;99.90;;;;;;5015699;28;20470;-75
2023/03/14 13:33:16;;;;;;;0.50;0.10;;;10.80;99.90;;;;;;5015728;28;21113;-75
2023/03/14 13:35:47;;;;;;;0.50;0.10;;;10.90;99.90;;;;;;5015384;28;20470;-75
2023/03/14 13:38:19;;;;;;;1.13;0.80;;;11.00;99.90;;;;;;5015678;28;20485;-75
2023/03/14 13:40:47;;;;;;;0.50;0.20;;;11.10;99.90;;;;;;5015799;28;20520;-77
2023/03/14 13:43:19;;;;;;;0.50;0.10;;;11.10;99.90;;;;;;5016486;28;20452;-74
2023/03/14 13:45:51;;;;;;;0.50;0.10;;;11.10;99.90;;;;;;5016353;28;20987;-75
2023/03/14 13:48:20;;;;;;;0.50;0.10;;;11.10;99.90;;;;;;5018036;28;20453;-78
2023/03/14 13:50:53;;;;;;;0.60;0.30;;;11.20;99.90;;;;;;5015646;28;20508;-74
2023/03/14 13:53:21;;;;;;;0.50;0.10;;;11.20;99.90;;;;;;5016373;28;20851;-76
2023/03/14 13:55:50;;;;;;;0.50;0.10;;;11.10;99.90;;;;;;5015688;28;20994;-74
2023/03/14 13:58:24;;;;;;;0.50;0.10;;;11.00;99.90;;;;;;5015262;28;20453;-76
2023/03/14 14:01:07;;;;;;;0.50;0.10;;;10.90;99.90;;;;;;5015314;28;20480;-75
2023/03/14 14:03:39;;;;;;;0.50;0.10;;;10.80;99.90;;;;;;5015312;28;20474;-75
2023/03/14 14:06:17;;;;;;;0.50;0.10;;;10.70;99.90;;;;;;5014628;28;20471;-77
2023/03/14 14:08:45;;;;;;;0.50;0.20;;;10.70;99.90;;;;;;5014949;28;20450;-75
2023/03/14 14:11:22;;;;;;;0.50;0.10;;;10.60;99.90;;;;;;5015335;28;20688;-72
2023/03/14 14:14:00;;;;;;;0.60;0.20;;;10.20;99.90;;;;;;5020097;28;20443;-76
2023/03/14 14:16:30;;;;;;;0.50;0.10;;;10.10;99.90;;;;;;5033341;28;20560;-75
2023/03/14 14:19:00;;;;;;;0.50;0.10;;;10.00;99.90;;;;;;5025042;28;20454;-78
2023/03/14 14:21:29;;;;;;;0.60;0.30;;;10.00;99.90;;;;;;5015072;28;20476;-76
2023/03/14 14:23:57;;;;;;;0.50;0.20;;;10.00;99.90;;;;;;5031877;28;20493;-75
2023/03/14 14:26:28;;;;;;;0.50;0.10;;;10.00;99.90;;;;;;5034184;28;20464;-74
2023/03/14 14:29:03;;;;;;;0.50;0.20;;;10.00;99.90;;;;;;5024702;28;20456;-73
2023/03/14 14:31:33;;;;;;;0.70;0.30;;;10.10;99.90;;;;;;5014606;28;20439;-75
2023/03/14 14:34:03;;;;;;;0.50;0.20;;;10.00;99.90;;;;;;5013871;28;20939;-77
2023/03/14 14:36:33;;;;;;;0.50;0.10;;;9.70;99.90;;;;;;5014114;28;20475;-76
2023/03/14 14:39:05;;;;;;;0.50;0.10;;;9.50;99.90;;;;;;5014333;28;20452;-74
2023/03/14 14:41:35;;;;;;;0.50;0.20;;;9.10;99.90;;;;;;5013774;28;20848;-76
2023/03/14 14:44:05;;;;;;;0.50;0.10;;;8.90;99.90;;;;;;5014008;28;20443;-76
2023/03/14 14:46:37;;;;;;;0.50;0.10;;;8.90;99.90;;;;;;5023286;28;20559;-77
2023/03/14 14:49:10;;;;;;;0.50;0.10;;;8.90;99.90;;;;;;5013624;28;20912;-76
2023/03/14 14:51:43;;;;;;;0.50;0.10;;;9.00;99.90;;;;;;5012695;28;20441;-72
2023/03/14 14:54:14;;;;;;;0.50;0.10;;;9.00;99.90;;;;;;5013407;28;20448;-75
2023/03/14 14:56:46;;;;;;;0.50;0.10;;;9.00;99.90;;;;;;5014130;28;20514;-73
2023/03/14 14:59:24;;;;;;;0.50;0.10;;;9.00;99.90;;;;;;5014091;28;20444;-73
2023/03/14 15:01:57;;;;;;;0.50;0.10;;;9.10;99.90;;;;;;5013827;28;20479;-73
2023/03/14 15:04:25;;;;;;;0.50;0.10;;;9.10;99.90;;;;;;5014025;28;20915;-78
2023/03/14 15:06:53;;;;;;;0.70;0.37;;;9.10;99.90;;;;;;5013819;28;20542;-77
2023/03/14 15:09:21;;;;;;;0.50;0.10;;;8.90;99.90;;;;;;5013808;28;20436;-73
2023/03/14 15:11:49;;;;;;;0.50;0.10;;;8.70;99.90;;;;;;5014008;28;20440;-76
2023/03/14 15:14:17;;;;;;;0.50;0.20;;;8.50;99.90;;;;;;5013127;28;20451;-74
2023/03/14 15:16:45;;;;;;;0.50;0.10;;;8.50;99.90;;;;;;5013835;28;20482;-75
2023/03/14 15:19:20;;;;;;;0.50;0.10;;;8.40;99.90;;;;;;5014747;28;20981;-77
2023/03/14 15:21:52;;;;;;;0.60;0.20;;;8.40;99.90;;;;;;5016597;28;20498;-75
2023/03/14 15:24:20;;;;;;;0.50;0.10;;;8.30;99.90;;;;;;5014669;28;20436;-74
2023/03/14 15:26:48;;;;;;;0.50;0.10;;;8.30;99.90;;;;;;5016087;28;20930;-74
2023/03/14 15:29:16;;;;;;;0.50;0.10;;;8.30;99.90;;;;;;5013950;28;20444;-74
2023/03/14 15:31:44;;;;;;;0.50;0.10;;;8.20;99.90;;;;;;5013494;28;20436;-76
2023/03/14 15:34:14;;;;;;;0.50;0.10;;;8.20;99.90;;;;;;5013349;28;20443;-74
2023/03/14 15:36:42;;;;;;;0.50;0.20;;;8.10;99.90;;;;;;5013775;28;20447;-74
2023/03/14 15:39:11;;;;;;;0.60;0.20;;;8.20;99.90;;;;;;5015743;28;20449;-76
2023/03/14 15:41:39;;;;;;;0.50;0.20;;;8.10;99.90;;;;;;5012914;28;21197;-73
2023/03/14 15:44:07;;;;;;;0.50;0.10;;;8.00;99.90;;;;;;5010391;28;20447;-74
2023/03/14 15:46:35;;;;;;;0.50;0.10;;;8.00;99.90;;;;;;5012410;28;20456;-74
2023/03/14 15:49:03;;;;;;;0.50;0.10;;;8.40;99.90;;;;;;5013672;28;20467;-76
2023/03/14 15:51:33;;;;;;;0.50;0.10;;;8.30;99.90;;;;;;5020928;28;20429;-72
2023/03/14 15:54:00;;;;;;;1.03;0.60;;;8.30;99.90;;;;;;5024398;28;20448;-76
2023/03/14 15:56:30;;;;;;;0.50;0.10;;;8.30;99.90;;;;;;5022284;28;20530;-76
2023/03/14 15:58:58;;;;;;;0.50;0.10;;;8.20;99.90;;;;;;5013582;28;20452;-75
2023/03/14 16:01:26;;;;;;;0.50;0.10;;;8.60;99.90;;;;;;5013010;28;20479;-77
2023/03/14 16:03:55;;;;;;;0.50;0.10;;;8.20;99.90;;;;;;5012868;28;20498;-75
2023/03/14 16:06:23;;;;;;;0.50;0.10;;;8.10;99.90;;;;;;5012144;28;20471;-74
2023/03/14 16:08:52;;;;;;;0.70;0.20;;;8.60;99.90;;;;;;5012810;28;20447;-76
2023/03/14 16:11:20;;;;;;;0.50;0.10;;;8.00;99.90;;;;;;5012399;28;20456;-77
2023/03/14 16:13:50;;;;;;;0.50;0.20;;;7.90;99.90;;;;;;5013165;28;20448;-81
2023/03/14 16:16:18;;;;;;;0.50;0.10;;;7.90;99.90;;;;;;5012655;28;20479;-74
2023/03/14 16:18:46;;;;;;;0.50;0.10;;;7.90;99.90;;;;;;5012078;28;20510;-73
2023/03/14 16:21:16;;;;;;;0.50;0.20;;;7.90;99.90;;;;;;5012677;28;20803;-74
2023/03/14 16:23:45;;;;;;;0.50;0.20;;;7.80;99.90;;;;;;5027785;28;20864;-73
2023/03/14 16:26:15;;;;;;;0.70;0.37;;;7.70;99.90;;;;;;5028125;28;20467;-76
2023/03/14 16:28:44;;;;;;;0.60;0.20;;;7.60;99.90;;;;;;5013342;28;20443;-76
2023/03/14 16:31:15;;;;;;;0.50;0.10;;;7.60;99.90;;;;;;5012318;28;20949;-77
2023/03/14 16:33:43;;;;;;;0.50;0.20;;;7.60;99.90;;;;;;5012801;28;20463;-75
2023/03/14 16:36:13;;;;;;;0.50;0.20;;;7.60;99.90;;;;;;5012715;28;20472;-78
2023/03/14 16:38:44;;;;;;;0.60;0.20;;;7.60;99.90;;;;;;5012473;28;20440;-77
2023/03/14 16:41:15;;;;;;;0.50;0.10;;;7.60;99.90;;;;;;5021048;28;20862;-82
2023/03/14 16:43:43;;;;;;;16.50;9.80;;;7.60;99.90;;;;;;5012922;28;20502;-76
2023/03/14 16:46:15;;;;;;;0.50;0.10;;;7.50;99.90;;;;;;5030912;28;20475;-77
2023/03/14 16:48:43;;;;;;;0.50;0.10;;;7.50;99.90;;;;;;5019651;28;21011;-78
2023/03/14 16:51:11;;;;;;;0.50;0.10;;;7.60;99.90;;;;;;5031246;28;20454;-77
2023/03/14 16:53:39;;;;;;;0.50;0.10;;;7.60;99.90;;;;;;5032319;28;20439;-77
2023/03/14 16:56:08;;;;;;;0.50;0.10;;;7.60;99.90;;;;;;5043418;28;20463;-75
2023/03/14 16:58:38;;;;;;;0.50;0.20;;;7.60;99.90;;;;;;5041039;28;20438;-74
2023/03/14 17:01:09;;;;;;;0.87;0.80;;;7.50;99.90;;;;;;5043114;28;20458;-75
2023/03/14 17:03:38;;;;;;;0.50;0.10;;;7.50;99.90;;;;;;5033165;28;20490;-75
2023/03/14 17:06:06;;;;;;;0.50;0.10;;;7.30;99.90;;;;;;5029232;28;20550;-75
2023/03/14 17:08:34;;;;;;;0.50;0.10;;;7.30;99.90;;;;;;5031776;28;20531;-77
2023/03/14 17:11:02;;;;;;;0.50;0.10;;;7.10;99.90;;;;;;5033361;28;20516;-77
2023/03/14 17:13:30;;;;;;;0.50;0.10;;;7.00;99.90;;;;;;5033164;28;20467;-77
2023/03/14 17:16:00;;;;;;;0.50;0.10;;;6.90;99.90;;;;;;5035736;28;20554;-76
2023/03/14 17:18:30;;;;;;;0.50;0.10;;;6.90;99.90;;;;;;5037510;28;21140;-78